Time;durP1;ratioP1;P1;durP2;ratioP2;P2;SDS_P1;SDS_P2;PMS_P1;PMS_P2;Temp;Humidity;BMP_temperature;BMP_pressure;BME280_temperature;BME280_humidity;BME280_pressure;Samples;Min_cycle;Max_cycle;Signal;HPM_P1;HPM_P2
2023/05/02 00:04:24;;;;;;;13.43;5.18;;;11.10;22.10;;;;;;20534547;28;20097;-43
2023/05/02 00:14:25;;;;;;;10.52;5.38;;;11.10;25.80;;;;;;20534938;28;20351;-42
2023/05/02 00:24:26;;;;;;;7.97;4.20;;;11.20;23.10;;;;;;20552522;28;20042;-42
2023/05/02 00:34:31;;;;;;;9.25;3.95;;;11.20;17.40;;;;;;20563388;28;20046;-42
2023/05/02 00:44:32;;;;;;;6.72;2.50;;;11.20;15.10;;;;;;20567214;28;20061;-42
2023/05/02 00:54:33;;;;;;;7.15;2.67;;;11.30;13.70;;;;;;20560151;28;20509;-42
2023/05/02 01:04:59;;;;;;;10.02;3.08;;;11.30;14.60;;;;;;20560398;28;20058;-42
2023/05/02 01:15:06;;;;;;;3.75;1.95;;;11.20;18.10;;;;;;20555589;28;20304;-42
2023/05/02 01:25:19;;;;;;;9.53;2.73;;;11.20;14.60;;;;;;20551562;28;20057;-42
2023/05/02 01:35:21;;;;;;;3.65;1.77;;;11.20;13.70;;;;;;20554916;28;20049;-42
2023/05/02 01:45:24;;;;;;;4.13;2.47;;;11.10;1.80;;;;;;20541560;28;20075;-43
2023/05/02 01:55:26;;;;;;;3.10;1.40;;;11.00;1.00;;;;;;20547554;28;20035;-42
2023/05/02 02:05:27;;;;;;;3.50;1.30;;;10.90;1.00;;;;;;20556359;28;20042;-43
2023/05/02 02:15:33;;;;;;;5.45;0.80;;;10.80;1.00;;;;;;20547389;28;20143;-43
2023/05/02 02:25:35;;;;;;;2.80;1.23;;;10.60;1.00;;;;;;20563309;28;20763;-43
2023/05/02 02:35:41;;;;;;;5.85;0.73;;;10.50;1.00;;;;;;20555807;28;20046;-42
2023/05/02 02:46:15;;;;;;;1.38;0.55;;;10.30;1.00;;;;;;20487010;28;20372;-42
2023/05/02 02:56:26;;;;;;;3.33;1.38;;;10.40;1.00;;;;;;20475523;28;20631;-43
2023/05/02 03:06:28;;;;;;;8.05;1.08;;;10.30;1.00;;;;;;20481129;28;20658;-43
2023/05/02 03:16:39;;;;;;;3.83;0.82;;;10.20;1.00;;;;;;20478182;28;20051;-43
2023/05/02 03:26:40;;;;;;;3.35;1.00;;;10.20;1.00;;;;;;20474597;28;20038;-43
2023/05/02 03:36:41;;;;;;;4.10;0.70;;;10.20;1.00;;;;;;20472730;28;20399;-42
2023/05/02 03:46:43;;;;;;;4.25;0.68;;;10.10;1.00;;;;;;20529484;28;20042;-43
2023/05/02 03:56:44;;;;;;;3.65;1.38;;;10.10;1.00;;;;;;20526214;28;20045;-43
2023/05/02 04:06:45;;;;;;;2.42;1.23;;;10.00;1.00;;;;;;20536372;28;20047;-43
2023/05/02 04:16:49;;;;;;;3.80;0.82;;;9.90;1.00;;;;;;20527025;28;20034;-42
2023/05/02 04:26:50;;;;;;;3.17;0.70;;;9.80;1.00;;;;;;20537252;28;20070;-43
2023/05/02 04:36:51;;;;;;;5.80;1.10;;;9.70;1.00;;;;;;20552752;28;20050;-43
2023/05/02 04:46:52;;;;;;;3.40;1.08;;;9.60;1.00;;;;;;20558401;28;20668;-43
2023/05/02 04:56:54;;;;;;;4.25;1.35;;;9.70;1.00;;;;;;20558046;28;20042;-43
2023/05/02 05:06:57;;;;;;;11.55;1.90;;;9.70;1.00;;;;;;20551628;28;20046;-43
2023/05/02 05:16:58;;;;;;;6.05;1.40;;;9.70;1.00;;;;;;20541670;28;20042;-42
2023/05/02 05:26:59;;;;;;;4.88;1.10;;;9.70;1.00;;;;;;20547583;28;20583;-42
2023/05/02 05:37:00;;;;;;;7.60;1.95;;;9.70;1.00;;;;;;20553489;28;20265;-42
2023/05/02 05:47:02;;;;;;;4.53;1.10;;;9.70;1.00;;;;;;20545347;28;20051;-42
2023/05/02 05:57:03;;;;;;;3.88;1.25;;;9.80;1.00;;;;;;20543941;28;20035;-42
2023/05/02 06:07:04;;;;;;;3.40;1.45;;;9.70;1.00;;;;;;20532976;28;20038;-42
2023/05/02 06:17:06;;;;;;;4.40;1.10;;;9.70;1.00;;;;;;20549190;28;20045;-42
2023/05/02 06:27:07;;;;;;;1.65;0.60;;;9.90;1.00;;;;;;20571390;28;20039;-42
2023/05/02 06:37:08;;;;;;;2.65;1.20;;;10.00;1.00;;;;;;20551757;28;20049;-42
2023/05/02 06:47:09;;;;;;;2.72;0.68;;;10.00;1.00;;;;;;20555924;28;20748;-43
2023/05/02 06:57:11;;;;;;;4.15;1.27;;;10.00;1.00;;;;;;20548163;28;20783;-42
2023/05/02 07:07:12;;;;;;;2.42;0.90;;;10.00;1.00;;;;;;20538669;28;20042;-42
2023/05/02 07:17:13;;;;;;;3.63;1.17;;;9.90;1.00;;;;;;20552040;28;20042;-42
2023/05/02 07:27:14;;;;;;;1.13;0.43;;;9.90;1.00;;;;;;20556939;28;20030;-43
2023/05/02 07:37:15;;;;;;;2.50;0.82;;;10.10;1.00;;;;;;20550673;28;20049;-42
2023/05/02 07:47:16;;;;;;;2.58;0.70;;;10.30;1.00;;;;;;20547193;28;20046;-42
2023/05/02 07:57:17;;;;;;;3.45;0.85;;;10.40;1.00;;;;;;20556934;28;20373;-42
2023/05/02 08:07:18;;;;;;;2.13;0.60;;;10.40;1.00;;;;;;20552571;28;20437;-42
2023/05/02 08:17:20;;;;;;;2.67;0.70;;;10.30;1.00;;;;;;20555624;28;20543;-43
2023/05/02 08:27:21;;;;;;;7.63;0.70;;;10.40;1.00;;;;;;20543487;28;20046;-42
2023/05/02 08:37:22;;;;;;;2.67;0.57;;;10.50;1.00;;;;;;20563503;28;20057;-42
2023/05/02 08:47:25;;;;;;;2.00;0.80;;;10.60;1.00;;;;;;20568039;28;20053;-43
2023/05/02 08:57:30;;;;;;;3.22;1.15;;;11.50;1.00;;;;;;20564661;28;20050;-41
2023/05/02 09:07:46;;;;;;;5.22;0.85;;;11.50;1.00;;;;;;20569522;28;20042;-42
2023/05/02 09:17:47;;;;;;;4.32;1.05;;;11.40;1.00;;;;;;20559270;28;20034;-42
2023/05/02 09:27:50;;;;;;;1.67;0.68;;;11.50;1.00;;;;;;20567825;28;20295;-41
2023/05/02 09:37:56;;;;;;;1.77;0.70;;;11.50;1.00;;;;;;20498249;28;20538;-42
2023/05/02 09:48:01;;;;;;;2.03;1.08;;;11.60;1.00;;;;;;20474030;28;20311;-42
2023/05/02 09:58:02;;;;;;;2.20;0.73;;;12.20;1.00;;;;;;20483245;28;20495;-42
2023/05/02 10:08:05;;;;;;;1.83;0.80;;;12.80;1.00;;;;;;20491819;28;20043;-42
2023/05/02 10:18:13;;;;;;;1.55;0.50;;;13.10;1.00;;;;;;20498661;28;20403;-42
2023/05/02 10:28:14;;;;;;;2.55;1.02;;;13.20;1.00;;;;;;20491600;28;20611;-42
2023/05/02 10:38:20;;;;;;;3.33;0.75;;;13.40;1.00;;;;;;20503805;28;20047;-42
2023/05/02 10:48:25;;;;;;;4.20;1.67;;;13.30;1.00;;;;;;20477081;28;20065;-42
2023/05/02 10:58:26;;;;;;;2.22;0.90;;;13.30;1.00;;;;;;20464265;28;20074;-42
2023/05/02 11:08:27;;;;;;;2.38;0.93;;;13.50;1.00;;;;;;20480966;28;20046;-41
2023/05/02 11:18:58;;;;;;;6.47;1.45;;;13.40;1.00;;;;;;20475173;28;20077;-42
2023/05/02 11:28:59;;;;;;;2.13;0.98;;;13.60;1.00;;;;;;20485394;28;20529;-42
2023/05/02 11:39:07;;;;;;;6.03;1.48;;;13.50;1.00;;;;;;20488178;28;20049;-42
2023/05/02 11:49:08;;;;;;;2.88;1.13;;;14.30;1.00;;;;;;20460206;28;20051;-41
2023/05/02 11:59:10;;;;;;;1.85;0.95;;;14.30;1.00;;;;;;20461029;28;20046;-42
2023/05/02 12:09:19;;;;;;;2.55;1.40;;;14.40;1.00;;;;;;20468106;28;20075;-41
2023/05/02 12:19:21;;;;;;;5.38;1.70;;;14.50;1.00;;;;;;20482920;28;20507;-42
2023/05/02 12:29:45;;;;;;;4.05;1.02;;;14.90;1.00;;;;;;20488277;28;20125;-41
2023/05/02 12:39:46;;;;;;;4.47;1.10;;;14.90;1.00;;;;;;20440524;28;1876092;-41
2023/05/02 12:49:49;;;;;;;2.58;1.20;;;15.00;1.00;;;;;;20489089;28;20042;-42
2023/05/02 12:59:53;;;;;;;4.88;1.20;;;15.20;1.00;;;;;;20496848;28;21546;-42
2023/05/02 13:09:54;;;;;;;2.95;1.17;;;15.10;1.00;;;;;;20490555;28;21432;-42
2023/05/02 13:19:55;;;;;;;4.35;1.30;;;16.10;1.00;;;;;;20515457;28;20046;-42
2023/05/02 13:29:56;;;;;;;4.47;0.98;;;16.30;1.00;;;;;;20486437;28;20061;-40
2023/05/02 13:39:58;;;;;;;7.65;1.77;;;16.90;1.00;;;;;;20476700;28;20684;-40
2023/05/02 13:49:58;;;;;;;4.57;1.05;;;16.80;1.00;;;;;;20479211;28;20047;-40
2023/05/02 14:00:00;;;;;;;5.28;1.50;;;16.10;1.00;;;;;;20474201;28;20065;-42
2023/05/02 14:10:01;;;;;;;3.53;1.40;;;15.40;1.00;;;;;;20466346;28;20070;-41
2023/05/02 14:20:03;;;;;;;2.40;1.13;;;14.80;1.00;;;;;;20474120;28;20581;-41
2023/05/02 14:30:05;;;;;;;3.63;1.40;;;15.00;1.00;;;;;;20473910;28;20521;-41
2023/05/02 14:40:08;;;;;;;3.60;1.10;;;15.00;1.00;;;;;;20467189;28;20049;-41
2023/05/02 14:50:09;;;;;;;3.75;1.20;;;14.30;1.00;;;;;;20473405;28;20039;-41
2023/05/02 15:00:10;;;;;;;3.83;0.80;;;14.20;1.00;;;;;;20466771;28;20731;-41
2023/05/02 15:10:11;;;;;;;2.88;1.50;;;14.10;1.00;;;;;;20478320;28;20039;-41
2023/05/02 15:20:13;;;;;;;4.70;1.05;;;14.00;1.00;;;;;;20477956;28;20601;-42
2023/05/02 15:30:14;;;;;;;7.28;1.65;;;13.70;1.00;;;;;;20481192;28;20034;-41
2023/05/02 15:40:15;;;;;;;3.95;1.55;;;13.60;1.00;;;;;;20517535;28;20050;-41
2023/05/02 15:50:16;;;;;;;1.95;0.60;;;13.40;1.00;;;;;;20560134;28;20034;-41
2023/05/02 16:00:18;;;;;;;2.22;0.95;;;13.30;1.00;;;;;;20557827;28;20070;-41
2023/05/02 16:10:19;;;;;;;5.95;0.90;;;13.10;1.00;;;;;;20540554;28;20038;-41
2023/05/02 16:20:20;;;;;;;3.28;0.73;;;12.90;1.00;;;;;;20554162;28;20459;-41
2023/05/02 16:30:22;;;;;;;2.15;0.60;;;12.80;1.00;;;;;;20565055;28;20065;-41
2023/05/02 16:40:23;;;;;;;2.42;1.02;;;12.60;1.00;;;;;;20553397;28;20479;-41
2023/05/02 16:50:24;;;;;;;1.40;0.82;;;12.20;1.00;;;;;;20544469;28;20509;-41
2023/05/02 17:00:25;;;;;;;0.90;0.40;;;12.10;1.00;;;;;;20549224;28;20054;-41
2023/05/02 17:10:26;;;;;;;4.45;1.88;;;12.00;1.00;;;;;;20561372;28;20659;-41
2023/05/02 17:20:27;;;;;;;2.25;0.85;;;11.90;1.00;;;;;;20567178;28;20053;-42
2023/05/02 17:30:29;;;;;;;1.67;0.80;;;11.70;1.00;;;;;;20570781;28;20031;-42
2023/05/02 17:40:30;;;;;;;1.50;0.80;;;11.70;1.00;;;;;;20566460;28;20410;-42
2023/05/02 17:50:38;;;;;;;1.30;0.70;;;11.50;1.00;;;;;;20503108;28;20034;-42
2023/05/02 18:00:39;;;;;;;4.22;0.70;;;11.20;1.00;;;;;;20520049;28;20046;-42
2023/05/02 18:10:41;;;;;;;5.25;1.02;;;10.90;1.00;;;;;;20549546;28;20422;-43
2023/05/02 18:20:43;;;;;;;2.55;0.73;;;10.70;1.00;;;;;;20567018;28;20079;-42
2023/05/02 18:30:44;;;;;;;20.58;7.15;;;10.50;1.00;;;;;;20571352;28;20421;-42
2023/05/02 18:40:45;;;;;;;17.63;6.90;;;10.30;1.00;;;;;;20560874;28;20046;-43
2023/05/02 18:50:46;;;;;;;3.78;1.10;;;10.20;1.00;;;;;;20562943;28;20034;-42
2023/05/02 19:00:47;;;;;;;10.77;3.70;;;10.10;1.00;;;;;;20558160;28;20057;-42
2023/05/02 19:10:48;;;;;;;5.43;2.30;;;10.00;1.00;;;;;;20565650;28;20482;-42
2023/05/02 19:20:49;;;;;;;4.60;2.25;;;9.90;1.00;;;;;;20566136;28;20046;-42
2023/05/02 19:30:50;;;;;;;2.75;1.40;;;9.80;1.00;;;;;;20562539;28;20520;-42
2023/05/02 19:40:52;;;;;;;1.55;0.57;;;9.70;1.00;;;;;;20562056;28;20039;-43
2023/05/02 19:50:53;;;;;;;4.60;1.10;;;9.60;1.00;;;;;;20564835;28;20050;-42
2023/05/02 20:00:54;;;;;;;1.77;0.73;;;9.50;1.00;;;;;;20566646;28;20049;-43
2023/05/02 20:10:56;;;;;;;2.28;1.10;;;9.40;1.00;;;;;;20560292;28;20537;-42
2023/05/02 20:20:57;;;;;;;5.35;1.70;;;9.30;1.00;;;;;;20561799;28;20409;-43
2023/05/02 20:30:58;;;;;;;2.05;0.80;;;9.10;1.00;;;;;;20562140;28;20046;-43
2023/05/02 20:40:59;;;;;;;4.20;1.00;;;9.10;1.00;;;;;;20572751;28;20042;-43
2023/05/02 20:51:00;;;;;;;1.42;0.50;;;8.90;1.00;;;;;;20571959;28;20205;-43
2023/05/02 21:01:02;;;;;;;1.98;0.68;;;8.80;1.00;;;;;;20568348;28;20057;-42
2023/05/02 21:11:11;;;;;;;7.50;0.70;;;8.70;1.00;;;;;;20561553;28;20039;-43
2023/05/02 21:21:12;;;;;;;1.40;0.52;;;8.60;1.00;;;;;;20563614;28;20039;-43
2023/05/02 21:31:13;;;;;;;2.45;0.65;;;8.50;1.00;;;;;;20547105;28;20372;-43
2023/05/02 21:41:15;;;;;;;2.88;0.80;;;8.40;1.00;;;;;;20551844;28;20050;-43
2023/05/02 21:51:16;;;;;;;2.80;0.52;;;8.30;1.00;;;;;;20553846;28;20511;-43
2023/05/02 22:01:17;;;;;;;4.55;0.80;;;8.20;1.00;;;;;;20559031;28;20046;-43
2023/05/02 22:11:20;;;;;;;1.35;0.38;;;8.10;1.00;;;;;;20547203;28;20042;-43
2023/05/02 22:21:21;;;;;;;0.90;0.40;;;8.10;1.00;;;;;;20556199;28;20038;-43
2023/05/02 22:31:22;;;;;;;4.10;0.90;;;8.00;1.00;;;;;;20549963;28;20410;-42
2023/05/02 22:41:23;;;;;;;4.97;0.68;;;7.90;1.00;;;;;;20552014;28;20046;-43
2023/05/02 22:51:24;;;;;;;2.42;0.50;;;7.80;1.00;;;;;;20541057;28;20069;-43
2023/05/02 23:01:26;;;;;;;2.08;1.13;;;7.80;1.00;;;;;;20537341;28;20145;-42
2023/05/02 23:11:28;;;;;;;1.40;0.50;;;7.80;1.00;;;;;;20534103;28;20391;-43
2023/05/02 23:21:29;;;;;;;1.40;0.70;;;7.70;1.00;;;;;;20531578;28;20057;-43
2023/05/02 23:31:30;;;;;;;2.17;0.70;;;7.50;1.00;;;;;;20539515;28;20049;-43
2023/05/02 23:41:31;;;;;;;2.28;1.17;;;7.40;1.00;;;;;;20534089;28;20066;-43
2023/05/02 23:51:32;;;;;;;2.00;0.77;;;7.20;1.00;;;;;;20544494;28;20062;-43
